Grande Europa — ICGE — position and weather

sailwx.info

Track history (hours):
 
Tides and Currents Weather Stations Pressure Air Temp Water Temp Dewpoint Dewpoint Depression Visibility Wind Speed Wind Dir Waves Ship Positions

Grande Europa

Last reported at 2018-Feb-25 14:41 UTC. Time now 2018-Feb-25 19:44 UTC.
Position N 40°26' E 029°00'.

Length 183 m; draft 7.8 m.

Type: Ship (hazmat cat A). MMSI: 247206000.

Date/timePositionNaut miles runAvg speedWind from/ knotsBaromVisibWave heightAir tempDewpointWater temp
2018-Feb-25 14:41N 40°26' E 029°00'212.4
2018-Feb-25 14:30N 40°26' E 029°03'2 0.1
2018-Feb-25 00:21N 40°26' E 029°05'2 5.5
2018-Feb-24 23:58N 40°26' E 029°03'22012.3
2018-Feb-24 06:04N 37°51' E 025°41'119.1
2018-Feb-24 06:00N 37°50' E 025°42'1019.3
2018-Feb-24 05:30N 37°40' E 025°45'1019.2
2018-Feb-24 05:00N 37°31' E 025°49'918.8
2018-Feb-24 04:30N 37°23' E 025°54'  
2018-Feb-21 20:46N 34°37' E 033°04'312.2
2018-Feb-21 20:30N 34°39' E 033°02'1 1.9
2018-Feb-21 19:58N 34°39' E 033°01'0 0.0
2018-Feb-21 19:28N 34°39' E 033°01'0 0.0
2018-Feb-21 18:58N 34°39' E 033°01'0 0.0
2018-Feb-21 18:22N 34°39' E 033°01'0 0.0
2018-Feb-21 17:58N 34°39' E 033°01'0 0.0
2018-Feb-21 17:28N 34°39' E 033°01'0 0.0
2018-Feb-21 16:58N 34°39' E 033°01'0 0.0
2018-Feb-21 16:28N 34°39' E 033°01'0 0.0
2018-Feb-21 15:58N 34°39' E 033°01'0 0.0
2018-Feb-21 15:28N 34°39' E 033°01'0 0.0
2018-Feb-21 14:58N 34°39' E 033°01'0 0.0
2018-Feb-21 14:28N 34°39' E 033°01'0 0.0
2018-Feb-21 13:58N 34°39' E 033°01'0 0.0
2018-Feb-21 13:28N 34°39' E 033°01'0 0.0
2018-Feb-21 12:58N 34°39' E 033°01'0 0.6
2018-Feb-21 12:30N 34°39' E 033°01'3 4.9
2018-Feb-21 11:58N 34°38' E 033°04'18316.5
2018-Feb-21 00:51N 31°52' E 034°38'1 0.0
2018-Feb-18 21:20N 31°51' E 034°38'1 3.2
2018-Feb-18 21:00N 31°52' E 034°38'  
2018-Feb-16 08:14N 37°21' E 025°54'419.0
2018-Feb-16 08:00N 37°24' E 025°51'1118.5
2018-Feb-16 07:26N 37°34' E 025°45'717.9
2018-Feb-16 07:00N 37°42' E 025°45'  
Track history (hours):
 
Tides and Currents Weather Stations Pressure Air Temp Water Temp Dewpoint Dewpoint Depression Visibility Wind Speed Wind Dir Waves Ship Positions

Grande Europa

Last reported at 2018-Feb-25 14:41 UTC. Time now 2018-Feb-25 19:44 UTC.
Position N 40°26' E 029°00'.

Length 183 m; draft 7.8 m.

Type: Ship (hazmat cat A). MMSI: 247206000.

Date/timePositionNaut miles runAvg speedWind from/ knotsBaromVisibWave heightAir tempDewpointWater temp
2018-Feb-25 14:41N 40°26' E 029°00'212.4
2018-Feb-25 14:30N 40°26' E 029°03'2 0.1
2018-Feb-25 00:21N 40°26' E 029°05'2 5.5
2018-Feb-24 23:58N 40°26' E 029°03'22012.3
2018-Feb-24 06:04N 37°51' E 025°41'119.1
2018-Feb-24 06:00N 37°50' E 025°42'1019.3
2018-Feb-24 05:30N 37°40' E 025°45'1019.2
2018-Feb-24 05:00N 37°31' E 025°49'918.8
2018-Feb-24 04:30N 37°23' E 025°54'  
2018-Feb-21 20:46N 34°37' E 033°04'312.2
2018-Feb-21 20:30N 34°39' E 033°02'1 1.9
2018-Feb-21 19:58N 34°39' E 033°01'0 0.0
2018-Feb-21 19:28N 34°39' E 033°01'0 0.0
2018-Feb-21 18:58N 34°39' E 033°01'0 0.0
2018-Feb-21 18:22N 34°39' E 033°01'0 0.0
2018-Feb-21 17:58N 34°39' E 033°01'0 0.0
2018-Feb-21 17:28N 34°39' E 033°01'0 0.0
2018-Feb-21 16:58N 34°39' E 033°01'0 0.0
2018-Feb-21 16:28N 34°39' E 033°01'0 0.0
2018-Feb-21 15:58N 34°39' E 033°01'0 0.0
2018-Feb-21 15:28N 34°39' E 033°01'0 0.0
2018-Feb-21 14:58N 34°39' E 033°01'0 0.0
2018-Feb-21 14:28N 34°39' E 033°01'0 0.0
2018-Feb-21 13:58N 34°39' E 033°01'0 0.0
2018-Feb-21 13:28N 34°39' E 033°01'0 0.0
2018-Feb-21 12:58N 34°39' E 033°01'0 0.6
2018-Feb-21 12:30N 34°39' E 033°01'3 4.9
2018-Feb-21 11:58N 34°38' E 033°04'18316.5
2018-Feb-21 00:51N 31°52' E 034°38'1 0.0
2018-Feb-18 21:20N 31°51' E 034°38'1 3.2
2018-Feb-18 21:00N 31°52' E 034°38'  
2018-Feb-16 08:14N 37°21' E 025°54'419.0
2018-Feb-16 08:00N 37°24' E 025°51'1118.5
2018-Feb-16 07:26N 37°34' E 025°45'717.9
2018-Feb-16 07:00N 37°42' E 025°45'  

Dump ship's entire track history